Franklin, KY

10:22 AM CDT on October 25, 2014 (GMT -0500)
Nashville International | Change Station
CLOSE
Current Station
Airport
Location: Nashville,
Elevation: 597 ft
Nearby Weather Stations

Elev 597 ft 36.12 °N, 86.69 °W | Updated 29 minutes ago

Partly Cloudy
Partly Cloudy
59 °F
Feels Like 59 °F
N
4
Wind Variable Wind from South

Today
High -- | Low -- °F
--% Chance of Precip.
Yesterday
High -- | Low -- °F
Precip. -- in
7:03 AM 5:57 PM
Waxing Crescent, 3% visible
Pressure 30.09 in
Visibility 10.0 miles
Clouds Few 4500 ft
Scattered Clouds 6000 ft
Dew Point 52 °F
Humidity 78%
Rainfall 0.00 in
Snow Depth Not available.
UV 2 out of 12
Pollen 1.40 out of 12
Air Quality Not available.
Flu Activity Sporadic
METAR KBNA 251453Z 18003KT 10SM FEW045 SCT060 15/11 A3009 RMK AO2 SLP189 T01500111 58001

More Conditions Fewer Conditions

Pressure 30.09 in
Visibility 10.0 miles
Clouds Few 4500 ft
Scattered Clouds 6000 ft
Dew Point 52 °F
Humidity 78%
Rainfall 0.00 in
Snow Depth Not available.
UV 2 out of 12
Pollen 1.40 out of 12
Air Quality Not available.
Flu Activity Sporadic
METAR KBNA 251453Z 18003KT 10SM FEW045 SCT060 15/11 A3009 RMK AO2 SLP189 T01500111 58001

More Conditions Fewer Conditions

10-Day Weather Forecast

Almanac

Astronomy

Oct. 25, 2014 Rise Set
Actual Time 7:03 AM CDT 5:57 PM CDT
Civil Twilight 6:36 AM CDT 6:23 PM CDT
Nautical Twilight 6:06 AM CDT 6:53 PM CDT
Astronomical Twilight 5:36 AM CDT 7:23 PM CDT
Moon 8:39 AM CDT 7:21 PM CDT
Length of Visible Light 11h 46m
Length of Day
10h 54m
Tomorrow will be 2m 9s shorter.
Waxing Crescent, 3% of the Moon is Illuminated
Today
Waxing Crescent
Oct 30
First Quarter
Nov 6
Full
Nov 14
Last Quarter
Nov 22
New

Today's Extremes

State Highs State Lows

Community

WunderPhotos

Upload Photos

1,764,876 photos uploaded!

Nearby

Snow Depth

Station Depth Elevation
No new snow has been reported.

Earthquake Activity

City Distance Mag. Time & Date
No recent earthquake activity has been reported nearby.
Minimum magnitude displayed is 2.5.

Coastal Water Temperatures

Place Temperature
No Stations Reporting

Nearby Weather Stations